Myrtle Beach, SC (29572)

8:29 AM EDT on August 04, 2015 (GMT -0400)
Green Lake | | Change Station
CLOSE
Current Station
Personal Weather Station
Location: Myrtle Beach, SC
Elevation: 39 ft
Nearby Weather Stations

Elev 39 ft 33.78 °N, 78.78 °W | Updated 11 seconds ago

Overcast
Overcast
74.3 °F
Feels Like 71 °F
N
2.9
Wind Variable Wind from NNW
Gusts 3.0 mph

Today
High -- | Low -- °F
--% Chance of Precip.
Yesterday
High -- | Low -- °F
Precip. -- in
6:29 AM 8:13 PM
Waning Gibbous, 78% visible
Pressure 29.95 in
Visibility 9.0 miles
Clouds Few 1200 ft
Mostly Cloudy 2000 ft
Mostly Cloudy 3200 ft
Heat Index 71 °F
Dew Point 73 °F
Humidity 96%
Rainfall 1.05 in
Snow Depth Not available.
UV 0.0 out of 12
Pollen 4.00 out of 12
Air Quality Not available.
Flu Activity Not available.
SPECI KCRE 041223Z AUTO 16010G21KT 9SM FEW012 BKN020 BKN032 25/22 A2995 RMK AO1 PK WND 19026/1202 LTG DSNT SE AND S T02500222

More Conditions Fewer Conditions

Pressure 29.95 in
Visibility 9.0 miles
Clouds Few 1200 ft
Mostly Cloudy 2000 ft
Mostly Cloudy 3200 ft
Heat Index 71 °F
Dew Point 73 °F
Humidity 96%
Rainfall 1.05 in
Snow Depth Not available.
UV 0.0 out of 12
Pollen 4.00 out of 12
Air Quality Not available.
Flu Activity Not available.
SPECI KCRE 041223Z AUTO 16010G21KT 9SM FEW012 BKN020 BKN032 25/22 A2995 RMK AO1 PK WND 19026/1202 LTG DSNT SE AND S T02500222

More Conditions Fewer Conditions

10-Day Weather Forecast

×

Almanac

Astronomy

Aug. 04, 2015 Rise Set
Actual Time
Civil Twilight
Nautical Twilight
Astronomical Twilight
Moon
Length of Visible Light
Length of Day
Tomorrow will be .
, % of the Moon is Illuminated

Today's Extremes

State Highs State Lows

Community

WunderPhotos

Upload Photos

1,843,910 photos uploaded!

WunderBlogs® & News

Nearby

Air Quality

  Air Quality AQ Index Pollutant
Not available.

Snow Depth

Station Depth Elevation

Earthquake Activity

City Distance Mag. Time & Date
Minimum magnitude displayed is 2.5.

Coastal Water Temperatures

Place Temperature

Stations

Nearby Weather Stations

Station Location Temp. Windchill Dew Point Humidity Wind Precip. Elev Updated Type